Time;durP1;ratioP1;P1;durP2;ratioP2;P2;SDS_P1;SDS_P2;PMS_P1;PMS_P2;Temp;Humidity;BMP_temperature;BMP_pressure;BME280_temperature;BME280_humidity;BME280_pressure;Samples;Min_cycle;Max_cycle;Signal;HPM_P1;HPM_P2
2023/05/21 00:01:42;;;;;;;2.13;1.35;;;14.10;99.90;;;;;;5088404;28;20099;-62
2023/05/21 00:04:10;;;;;;;1.75;1.13;;;14.10;99.90;;;;;;5088861;28;20396;-62
2023/05/21 00:06:36;;;;;;;1.83;1.08;;;14.10;99.90;;;;;;5089917;28;20032;-62
2023/05/21 00:09:03;;;;;;;2.17;1.05;;;14.00;99.90;;;;;;5088010;28;20048;-62
2023/05/21 00:11:30;;;;;;;1.95;0.95;;;14.00;99.90;;;;;;5088853;28;20047;-62
2023/05/21 00:13:56;;;;;;;2.78;1.30;;;14.00;99.90;;;;;;5088331;28;20097;-62
2023/05/21 00:16:22;;;;;;;1.33;0.70;;;14.00;99.90;;;;;;5088430;28;20126;-62
2023/05/21 00:18:48;;;;;;;2.17;1.13;;;14.00;99.90;;;;;;5088861;28;20044;-62
2023/05/21 00:21:16;;;;;;;1.98;0.95;;;14.00;99.90;;;;;;5089583;28;20032;-62
2023/05/21 00:23:44;;;;;;;2.25;0.98;;;14.00;99.90;;;;;;5089465;28;20024;-62
2023/05/21 00:26:10;;;;;;;3.67;1.00;;;14.00;99.90;;;;;;5087735;28;20114;-62
2023/05/21 00:28:36;;;;;;;2.05;1.35;;;14.00;99.90;;;;;;5089553;28;20487;-62
2023/05/21 00:31:02;;;;;;;1.90;0.93;;;13.90;99.90;;;;;;5089173;28;20076;-62
2023/05/21 00:33:28;;;;;;;1.55;0.95;;;13.90;99.90;;;;;;5087819;28;20051;-62
2023/05/21 00:35:56;;;;;;;1.88;1.20;;;13.90;99.90;;;;;;5071188;28;20063;-62
2023/05/21 00:38:22;;;;;;;2.25;0.95;;;13.90;99.90;;;;;;5090479;28;20388;-62
2023/05/21 00:40:49;;;;;;;3.33;1.00;;;13.90;99.90;;;;;;5091062;28;20044;-62
2023/05/21 00:43:14;;;;;;;2.75;1.30;;;13.90;99.90;;;;;;5093041;28;20101;-62
2023/05/21 00:45:46;;;;;;;1.73;1.08;;;13.90;99.90;;;;;;5092327;28;20044;-62
2023/05/21 00:48:13;;;;;;;2.60;0.90;;;13.90;99.90;;;;;;5091514;28;20044;-62
2023/05/21 00:50:40;;;;;;;1.73;1.15;;;13.80;99.90;;;;;;5110850;28;20395;-62
2023/05/21 00:53:10;;;;;;;2.97;1.30;;;13.80;99.90;;;;;;5094216;28;20070;-62
2023/05/21 00:55:39;;;;;;;2.78;1.10;;;13.80;99.90;;;;;;5113107;28;20050;-62
2023/05/21 00:58:06;;;;;;;1.25;0.82;;;13.80;99.90;;;;;;5078000;28;20035;-62
2023/05/21 01:00:36;;;;;;;2.75;1.17;;;13.80;99.90;;;;;;5094192;28;20043;-62
2023/05/21 01:03:02;;;;;;;5.60;1.67;;;13.80;99.90;;;;;;5113115;28;20496;-62
2023/05/21 01:05:28;;;;;;;1.90;0.82;;;13.80;99.90;;;;;;5094623;28;20047;-62
2023/05/21 01:07:56;;;;;;;2.70;1.30;;;13.80;99.90;;;;;;5112305;28;20039;-62
2023/05/21 01:10:23;;;;;;;2.92;0.98;;;13.80;99.90;;;;;;5094651;28;20078;-62
2023/05/21 01:12:50;;;;;;;3.00;1.10;;;13.80;99.90;;;;;;5094552;28;20122;-62
2023/05/21 01:15:16;;;;;;;2.63;1.52;;;13.80;99.90;;;;;;5093830;28;20055;-62
2023/05/21 01:17:44;;;;;;;1.58;1.05;;;13.80;99.90;;;;;;5094283;28;20043;-62
2023/05/21 01:20:11;;;;;;;1.70;1.00;;;13.80;99.90;;;;;;5094418;28;20047;-62
2023/05/21 01:22:49;;;;;;;3.13;1.75;;;13.80;99.90;;;;;;5076955;28;20046;-62
2023/05/21 01:25:15;;;;;;;4.05;0.95;;;13.80;99.90;;;;;;5112307;28;20490;-62
2023/05/21 01:27:40;;;;;;;2.80;1.08;;;13.80;99.90;;;;;;5111927;28;20070;-62
2023/05/21 01:30:07;;;;;;;2.65;1.30;;;13.80;99.90;;;;;;5094252;28;20384;-62
2023/05/21 01:32:51;;;;;;;1.35;0.80;;;13.70;99.90;;;;;;5112563;28;20387;-62
2023/05/21 01:35:26;;;;;;;4.47;1.20;;;13.70;99.90;;;;;;5093822;28;20039;-62
2023/05/21 01:38:03;;;;;;;4.55;1.10;;;13.70;99.90;;;;;;5094306;28;20169;-62
2023/05/21 01:40:30;;;;;;;2.58;1.15;;;13.70;99.90;;;;;;5112449;28;20122;-62
2023/05/21 01:42:57;;;;;;;2.05;1.00;;;13.70;99.90;;;;;;5093537;28;20039;-62
2023/05/21 01:45:25;;;;;;;3.83;1.17;;;13.70;99.90;;;;;;5112000;28;20032;-62
2023/05/21 01:47:54;;;;;;;2.00;1.05;;;13.70;99.90;;;;;;5093523;28;20251;-62
2023/05/21 01:50:22;;;;;;;3.25;1.20;;;13.60;99.90;;;;;;5089677;28;20474;-62
2023/05/21 01:52:50;;;;;;;2.03;1.20;;;13.60;99.90;;;;;;5090282;28;20047;-62
2023/05/21 01:55:16;;;;;;;2.55;1.08;;;13.70;99.90;;;;;;5090496;28;20174;-62
2023/05/21 01:57:42;;;;;;;2.33;1.40;;;13.60;99.90;;;;;;5091229;28;20044;-62
2023/05/21 02:00:09;;;;;;;1.20;0.90;;;13.60;99.90;;;;;;5090136;28;20036;-62
2023/05/21 02:02:35;;;;;;;1.83;0.88;;;13.60;99.90;;;;;;5089438;28;20072;-62
2023/05/21 02:05:01;;;;;;;2.70;1.23;;;13.60;99.90;;;;;;5090344;28;20657;-62
2023/05/21 02:07:27;;;;;;;2.22;1.10;;;13.60;99.90;;;;;;5090134;28;20043;-62
2023/05/21 02:09:53;;;;;;;1.63;0.93;;;13.60;99.90;;;;;;5072664;28;20076;-62
2023/05/21 02:12:19;;;;;;;1.80;1.05;;;13.60;99.90;;;;;;5089984;28;20082;-62
2023/05/21 02:14:49;;;;;;;2.78;1.35;;;13.60;99.90;;;;;;5091449;28;20040;-62
2023/05/21 02:17:16;;;;;;;3.55;1.20;;;13.60;99.90;;;;;;5072462;28;20492;-62
2023/05/21 02:19:43;;;;;;;2.50;1.73;;;13.50;99.90;;;;;;5089671;28;20416;-62
2023/05/21 02:22:10;;;;;;;3.05;1.42;;;13.50;99.90;;;;;;5090023;28;20036;-62
2023/05/21 02:24:36;;;;;;;1.77;1.10;;;13.50;99.90;;;;;;5090561;28;20097;-63
2023/05/21 02:27:02;;;;;;;2.03;1.10;;;13.60;99.90;;;;;;5089726;28;20043;-62
2023/05/21 02:29:28;;;;;;;2.58;1.10;;;13.50;99.90;;;;;;5091021;28;20109;-62
2023/05/21 02:31:53;;;;;;;4.72;1.90;;;13.50;99.90;;;;;;5089330;28;20122;-62
2023/05/21 02:34:19;;;;;;;1.60;1.10;;;13.50;99.90;;;;;;5091004;28;20660;-62
2023/05/21 02:36:51;;;;;;;2.65;1.45;;;13.50;99.90;;;;;;5089808;28;20047;-62
2023/05/21 02:39:18;;;;;;;1.88;1.13;;;13.50;99.90;;;;;;5071962;28;20050;-62
2023/05/21 02:41:45;;;;;;;3.70;1.50;;;13.50;99.90;;;;;;5089599;28;20069;-62
2023/05/21 02:44:12;;;;;;;7.30;1.63;;;13.50;99.90;;;;;;5089326;28;20082;-62
2023/05/21 02:46:37;;;;;;;4.20;1.50;;;13.40;99.90;;;;;;5088946;28;20079;-62
2023/05/21 02:49:03;;;;;;;2.25;1.33;;;13.40;99.90;;;;;;5089074;28;20661;-62
2023/05/21 02:51:29;;;;;;;3.92;1.33;;;13.40;99.90;;;;;;5089297;28;20093;-62
2023/05/21 02:53:55;;;;;;;1.45;0.95;;;13.40;99.90;;;;;;5090037;28;20140;-62
2023/05/21 02:56:21;;;;;;;2.47;1.30;;;13.40;99.90;;;;;;5090759;28;20051;-62
2023/05/21 02:58:46;;;;;;;3.28;1.60;;;13.30;99.90;;;;;;5088501;28;20036;-62
2023/05/21 03:01:12;;;;;;;2.00;1.13;;;13.30;99.90;;;;;;5088701;28;20105;-62
2023/05/21 03:03:38;;;;;;;2.08;1.17;;;13.20;99.90;;;;;;5089325;28;20128;-62
2023/05/21 03:06:04;;;;;;;4.28;1.13;;;13.20;99.90;;;;;;5088351;28;20107;-62
2023/05/21 03:08:30;;;;;;;1.98;1.20;;;13.10;99.90;;;;;;5088848;28;20047;-62
2023/05/21 03:10:56;;;;;;;2.53;1.05;;;13.00;99.90;;;;;;5089133;28;20044;-62
2023/05/21 03:13:22;;;;;;;1.67;0.77;;;13.00;99.90;;;;;;5088283;28;20504;-62
2023/05/21 03:15:48;;;;;;;3.15;1.42;;;12.90;99.90;;;;;;5089086;28;20032;-62
2023/05/21 03:18:14;;;;;;;3.28;1.27;;;12.90;99.90;;;;;;5088853;28;20113;-62
2023/05/21 03:20:45;;;;;;;1.73;1.00;;;12.80;99.90;;;;;;5071687;28;20082;-62
2023/05/21 03:23:12;;;;;;;2.92;1.33;;;12.80;99.90;;;;;;5090504;28;20463;-63
2023/05/21 03:25:38;;;;;;;2.17;1.08;;;12.80;99.90;;;;;;5090150;28;20036;-62
2023/05/21 03:28:05;;;;;;;2.05;1.13;;;12.70;99.90;;;;;;5089220;28;20101;-62
2023/05/21 03:30:31;;;;;;;2.60;1.23;;;12.70;99.90;;;;;;5090318;28;20061;-62
2023/05/21 03:32:58;;;;;;;2.70;1.40;;;12.80;99.90;;;;;;5088668;28;20138;-62
2023/05/21 03:35:24;;;;;;;3.35;1.30;;;12.80;99.90;;;;;;5088188;28;20047;-62
2023/05/21 03:37:50;;;;;;;5.38;1.30;;;12.80;99.90;;;;;;5088451;28;20046;-62
2023/05/21 03:40:16;;;;;;;4.00;1.42;;;12.80;99.90;;;;;;5089662;28;20107;-62
2023/05/21 03:42:42;;;;;;;2.33;1.25;;;12.90;99.90;;;;;;5088002;28;20043;-62
2023/05/21 03:45:08;;;;;;;2.35;1.33;;;12.90;99.90;;;;;;5089996;28;20532;-62
2023/05/21 03:47:35;;;;;;;5.45;1.55;;;12.90;99.90;;;;;;5070912;28;20508;-62
2023/05/21 03:50:02;;;;;;;6.18;1.52;;;12.90;99.90;;;;;;5088340;28;20095;-62
2023/05/21 03:52:27;;;;;;;3.58;1.30;;;12.90;99.90;;;;;;5088430;28;20093;-62
2023/05/21 03:54:53;;;;;;;3.45;1.73;;;13.00;99.90;;;;;;5087826;28;20123;-62
2023/05/21 03:57:19;;;;;;;2.58;1.95;;;13.00;99.90;;;;;;5088316;28;20123;-62
2023/05/21 03:59:45;;;;;;;3.53;1.88;;;13.00;99.90;;;;;;5089554;28;20044;-62
2023/05/21 04:02:11;;;;;;;3.65;1.55;;;13.10;99.90;;;;;;5088450;28;20089;-62
2023/05/21 04:04:36;;;;;;;3.17;1.83;;;13.10;99.90;;;;;;5069264;28;20080;-62
2023/05/21 04:07:03;;;;;;;3.67;1.67;;;13.10;99.90;;;;;;5069385;28;20186;-62
2023/05/21 04:09:29;;;;;;;2.15;1.55;;;13.20;99.90;;;;;;5067468;28;20045;-62
2023/05/21 04:11:55;;;;;;;2.40;1.17;;;13.20;99.90;;;;;;5068626;28;20044;-62
2023/05/21 04:14:24;;;;;;;3.60;1.60;;;13.20;99.90;;;;;;5071974;28;20515;-62
2023/05/21 04:16:50;;;;;;;3.97;1.80;;;13.20;99.90;;;;;;5072534;28;20095;-62
2023/05/21 04:19:15;;;;;;;3.65;1.65;;;13.20;99.90;;;;;;5072119;28;20075;-62
2023/05/21 04:21:43;;;;;;;3.42;1.73;;;13.30;99.90;;;;;;5072144;28;20044;-62
2023/05/21 04:24:09;;;;;;;2.38;1.52;;;13.30;99.90;;;;;;5071160;28;20044;-62
2023/05/21 04:26:35;;;;;;;5.03;2.00;;;13.30;99.90;;;;;;5072254;28;20098;-62
2023/05/21 04:29:04;;;;;;;3.38;1.70;;;13.30;99.90;;;;;;5073581;28;20120;-62
2023/05/21 04:31:33;;;;;;;3.80;1.83;;;13.30;99.90;;;;;;5072671;28;20044;-62
2023/05/21 04:33:59;;;;;;;2.65;1.33;;;13.40;99.90;;;;;;5071681;28;20060;-62
2023/05/21 04:36:27;;;;;;;4.65;2.20;;;13.40;99.90;;;;;;5072675;28;20041;-62
2023/05/21 04:38:54;;;;;;;4.72;1.30;;;13.40;99.90;;;;;;5071990;28;20550;-62
2023/05/21 04:41:20;;;;;;;4.65;1.58;;;13.40;99.90;;;;;;5071852;28;20400;-62
2023/05/21 04:43:46;;;;;;;3.72;1.90;;;13.40;99.90;;;;;;5070700;28;20041;-62
2023/05/21 04:46:12;;;;;;;2.85;1.80;;;13.40;99.90;;;;;;5071352;28;20109;-62
2023/05/21 04:48:39;;;;;;;4.07;2.05;;;13.40;99.90;;;;;;5073882;28;20493;-62
2023/05/21 04:51:05;;;;;;;4.68;1.60;;;13.40;99.90;;;;;;5094305;28;20047;-62
2023/05/21 04:53:32;;;;;;;2.75;1.30;;;13.40;99.90;;;;;;5113161;28;20128;-62
2023/05/21 04:55:58;;;;;;;3.13;1.73;;;13.40;99.90;;;;;;5078295;28;20066;-63
2023/05/21 04:58:25;;;;;;;3.25;1.58;;;13.40;99.90;;;;;;5094107;28;20043;-62
2023/05/21 05:00:52;;;;;;;3.75;1.80;;;13.40;99.90;;;;;;5113007;28;20086;-62
2023/05/21 05:03:18;;;;;;;3.50;1.63;;;13.40;99.90;;;;;;5094661;28;20068;-62
2023/05/21 05:05:44;;;;;;;3.95;1.95;;;13.40;99.90;;;;;;5094112;28;20069;-62
2023/05/21 05:08:12;;;;;;;4.90;1.95;;;13.50;99.90;;;;;;5113081;28;20039;-62
2023/05/21 05:10:38;;;;;;;5.50;2.10;;;13.50;99.90;;;;;;5112687;28;20089;-62
2023/05/21 05:13:04;;;;;;;6.20;2.08;;;13.50;99.90;;;;;;5112327;28;20078;-62
2023/05/21 05:15:30;;;;;;;4.18;1.73;;;13.60;99.90;;;;;;5094711;28;20452;-62
2023/05/21 05:17:56;;;;;;;3.55;1.65;;;13.60;99.90;;;;;;5094336;28;20052;-62
2023/05/21 05:20:21;;;;;;;4.43;2.55;;;13.60;99.90;;;;;;5093611;28;20511;-62
2023/05/21 05:22:47;;;;;;;4.78;1.88;;;13.60;99.90;;;;;;5093894;28;20164;-62
2023/05/21 05:25:13;;;;;;;3.15;1.63;;;13.70;99.90;;;;;;5088731;28;20042;-63
2023/05/21 05:27:39;;;;;;;7.05;1.88;;;13.80;99.90;;;;;;5093024;28;20598;-62
2023/05/21 05:30:06;;;;;;;2.70;1.23;;;13.80;99.90;;;;;;5090361;28;20042;-62
2023/05/21 05:32:31;;;;;;;3.65;1.70;;;13.80;99.90;;;;;;5111538;28;20139;-62
2023/05/21 05:34:57;;;;;;;4.95;2.35;;;13.90;99.90;;;;;;5093527;28;20096;-62
2023/05/21 05:37:23;;;;;;;4.85;2.15;;;13.80;99.90;;;;;;5094217;28;20051;-62
2023/05/21 05:39:49;;;;;;;2.97;1.20;;;13.90;99.90;;;;;;5093176;28;20446;-62
2023/05/21 05:42:15;;;;;;;3.65;1.90;;;13.90;99.90;;;;;;5112437;28;20055;-62
2023/05/21 05:44:40;;;;;;;2.10;1.42;;;13.90;99.90;;;;;;5112242;28;20517;-62
2023/05/21 05:47:09;;;;;;;2.85;1.33;;;13.90;99.90;;;;;;5093106;28;20039;-62
2023/05/21 05:49:36;;;;;;;6.45;2.05;;;13.90;99.90;;;;;;5093749;28;20148;-62
2023/05/21 05:52:02;;;;;;;3.28;2.10;;;13.90;99.90;;;;;;5094057;28;20048;-62
2023/05/21 05:54:28;;;;;;;3.88;1.85;;;13.90;99.90;;;;;;5111739;28;20043;-62
2023/05/21 05:56:53;;;;;;;2.78;1.50;;;13.90;99.90;;;;;;5093932;28;20089;-62
2023/05/21 05:59:19;;;;;;;3.58;1.65;;;14.00;99.90;;;;;;5093503;28;20485;-62
2023/05/21 06:01:45;;;;;;;3.30;1.40;;;14.00;99.90;;;;;;5093191;28;20036;-62
2023/05/21 06:04:11;;;;;;;4.05;1.67;;;14.00;99.90;;;;;;5093782;28;20458;-62
2023/05/21 06:06:37;;;;;;;2.53;1.13;;;14.10;99.90;;;;;;5093309;28;20043;-62
2023/05/21 06:09:03;;;;;;;3.50;1.77;;;14.20;99.90;;;;;;5111295;28;20392;-62
2023/05/21 06:11:29;;;;;;;1.98;1.17;;;14.30;99.90;;;;;;5111949;28;20047;-62
2023/05/21 06:13:55;;;;;;;2.78;1.42;;;14.30;99.90;;;;;;5111581;28;20040;-62
2023/05/21 06:16:21;;;;;;;3.08;1.27;;;14.30;99.90;;;;;;5093099;28;20613;-62
2023/05/21 06:18:47;;;;;;;3.28;1.30;;;14.40;99.90;;;;;;5111649;28;20059;-62
2023/05/21 06:21:13;;;;;;;4.15;1.13;;;14.40;99.90;;;;;;5093694;28;20062;-62
2023/05/21 06:23:39;;;;;;;2.00;1.20;;;14.50;99.90;;;;;;5093151;28;20039;-62
2023/05/21 06:26:05;;;;;;;1.75;1.02;;;14.50;99.90;;;;;;5111525;28;20039;-62
2023/05/21 06:28:30;;;;;;;4.63;1.23;;;14.50;99.90;;;;;;5111536;28;20058;-61
2023/05/21 06:30:56;;;;;;;2.20;1.25;;;14.60;99.90;;;;;;5092622;28;20043;-61
2023/05/21 06:33:22;;;;;;;3.08;1.20;;;14.70;99.90;;;;;;5093216;28;20050;-62
2023/05/21 06:35:48;;;;;;;3.33;1.85;;;14.80;99.90;;;;;;5091474;28;20476;-62
2023/05/21 06:38:14;;;;;;;2.95;1.23;;;14.80;99.90;;;;;;5111314;28;20042;-62
2023/05/21 06:40:39;;;;;;;2.33;1.17;;;15.00;99.90;;;;;;5093049;28;20072;-62
2023/05/21 06:43:05;;;;;;;7.10;1.65;;;15.00;99.90;;;;;;5092792;28;20035;-62
2023/05/21 06:45:31;;;;;;;1.90;1.20;;;15.10;99.90;;;;;;5111246;28;20059;-62
2023/05/21 06:47:57;;;;;;;1.30;1.00;;;15.10;99.90;;;;;;5092737;28;20047;-62
2023/05/21 06:50:23;;;;;;;2.95;1.67;;;15.10;99.90;;;;;;5110533;28;20086;-62
2023/05/21 06:52:50;;;;;;;3.42;1.13;;;15.10;99.90;;;;;;5092850;28;20100;-62
2023/05/21 06:55:15;;;;;;;2.97;1.52;;;15.20;99.90;;;;;;5092698;28;20035;-62
2023/05/21 06:57:42;;;;;;;3.85;1.35;;;15.20;99.90;;;;;;5091938;28;20043;-62
2023/05/21 07:00:09;;;;;;;1.63;1.20;;;15.30;99.90;;;;;;5092538;28;20039;-62
2023/05/21 07:02:35;;;;;;;1.38;0.95;;;15.30;99.90;;;;;;5092296;28;20671;-62
2023/05/21 07:05:01;;;;;;;2.83;1.63;;;15.40;99.90;;;;;;5110155;28;20046;-62
2023/05/21 07:07:27;;;;;;;6.38;1.50;;;15.40;99.90;;;;;;5092262;28;20064;-62
2023/05/21 07:09:52;;;;;;;3.83;1.52;;;15.40;99.90;;;;;;5092594;28;20119;-62
2023/05/21 07:12:18;;;;;;;4.78;1.38;;;15.40;99.90;;;;;;5110433;28;20498;-62
2023/05/21 07:14:44;;;;;;;3.17;1.40;;;15.40;99.90;;;;;;5092196;28;20078;-62
2023/05/21 07:17:10;;;;;;;4.60;1.30;;;15.50;99.90;;;;;;5092385;28;20044;-62
2023/05/21 07:19:37;;;;;;;1.85;1.02;;;15.50;99.90;;;;;;5110250;28;20089;-62
2023/05/21 07:22:04;;;;;;;2.50;1.40;;;15.60;99.90;;;;;;5092388;28;20051;-62
2023/05/21 07:24:29;;;;;;;2.10;1.10;;;15.70;99.90;;;;;;5091987;28;20074;-62
2023/05/21 07:26:55;;;;;;;3.00;1.33;;;15.80;99.90;;;;;;5091719;28;20036;-62
2023/05/21 07:29:21;;;;;;;2.40;1.17;;;16.00;99.90;;;;;;5092229;28;20502;-62
2023/05/21 07:31:47;;;;;;;2.95;1.38;;;16.00;99.90;;;;;;5091493;28;20408;-62
2023/05/21 07:34:13;;;;;;;3.45;1.27;;;16.20;99.90;;;;;;5092204;28;20043;-62
2023/05/21 07:36:38;;;;;;;8.88;1.52;;;16.30;99.90;;;;;;5092234;28;20035;-62
2023/05/21 07:39:04;;;;;;;3.72;1.00;;;16.40;99.90;;;;;;5109326;28;20039;-62
2023/05/21 07:41:31;;;;;;;4.50;1.83;;;16.50;99.90;;;;;;5075830;28;20097;-62
2023/05/21 07:43:57;;;;;;;2.35;1.20;;;16.60;99.90;;;;;;5110137;28;20043;-62
2023/05/21 07:46:23;;;;;;;3.13;1.42;;;16.70;99.90;;;;;;5091284;28;20035;-62
2023/05/21 07:48:49;;;;;;;4.07;1.33;;;16.90;99.90;;;;;;5091801;28;20121;-62
2023/05/21 07:51:15;;;;;;;2.38;1.00;;;17.20;99.90;;;;;;5092344;28;20095;-62
2023/05/21 07:53:41;;;;;;;3.95;1.60;;;17.40;99.90;;;;;;5091646;28;20035;-62
2023/05/21 07:56:07;;;;;;;4.55;1.60;;;17.60;99.90;;;;;;5110015;28;20559;-63
2023/05/21 07:58:33;;;;;;;3.33;1.38;;;17.80;99.90;;;;;;5075190;28;20042;-62
2023/05/21 08:01:00;;;;;;;3.83;1.45;;;17.90;99.90;;;;;;5091456;28;20114;-62
2023/05/21 08:03:29;;;;;;;1.15;0.82;;;18.00;99.90;;;;;;5091944;28;20126;-62
2023/05/21 08:05:55;;;;;;;2.17;1.20;;;18.20;99.90;;;;;;5091889;28;20046;-63
2023/05/21 08:08:22;;;;;;;3.63;1.38;;;18.50;99.90;;;;;;5109686;28;20038;-62
2023/05/21 08:10:48;;;;;;;2.92;1.25;;;18.90;99.90;;;;;;5110213;28;20047;-62
2023/05/21 08:13:15;;;;;;;1.95;1.23;;;19.20;99.90;;;;;;5091949;28;20036;-62
2023/05/21 08:15:41;;;;;;;2.40;1.40;;;19.20;99.90;;;;;;5109375;28;20047;-62
2023/05/21 08:18:07;;;;;;;2.90;1.35;;;19.20;99.90;;;;;;5091913;28;20036;-62
2023/05/21 08:20:33;;;;;;;3.30;1.70;;;19.30;99.90;;;;;;5109400;28;20499;-62
2023/05/21 08:22:59;;;;;;;3.15;1.38;;;19.50;99.90;;;;;;5075083;28;20054;-62
2023/05/21 08:25:28;;;;;;;3.85;1.23;;;19.70;99.90;;;;;;5091652;28;20040;-62
2023/05/21 08:27:54;;;;;;;3.05;1.30;;;19.90;99.90;;;;;;5091013;28;20039;-62
2023/05/21 08:30:20;;;;;;;5.70;1.27;;;20.00;99.90;;;;;;5091821;28;20035;-63
2023/05/21 08:32:47;;;;;;;2.42;1.27;;;20.10;99.90;;;;;;5109204;28;20051;-62
2023/05/21 08:35:13;;;;;;;3.35;1.40;;;20.30;99.90;;;;;;5090966;28;20537;-62
2023/05/21 08:37:39;;;;;;;2.88;1.60;;;20.60;99.90;;;;;;5091558;28;20126;-63
2023/05/21 08:40:05;;;;;;;3.78;1.85;;;20.60;99.90;;;;;;5091686;28;20035;-63
2023/05/21 08:42:45;;;;;;;3.13;1.27;;;20.60;99.90;;;;;;5090935;28;20051;-63
2023/05/21 08:45:15;;;;;;;3.80;1.63;;;20.60;99.90;;;;;;5091590;28;20043;-62
2023/05/21 08:47:45;;;;;;;2.67;1.48;;;20.70;99.90;;;;;;5091730;28;20044;-63
2023/05/21 08:50:18;;;;;;;5.05;1.58;;;20.80;99.90;;;;;;5090612;28;20060;-63
2023/05/21 08:52:44;;;;;;;2.58;1.17;;;20.90;99.90;;;;;;5091247;28;20081;-63
2023/05/21 08:55:10;;;;;;;2.70;1.02;;;20.90;99.90;;;;;;5091554;28;20100;-63
2023/05/21 08:57:38;;;;;;;2.75;1.35;;;21.00;99.90;;;;;;5090770;28;20548;-63
2023/05/21 09:00:06;;;;;;;3.58;1.70;;;21.20;99.90;;;;;;5113258;28;20051;-62
2023/05/21 09:02:33;;;;;;;2.05;1.40;;;21.30;99.90;;;;;;5094897;28;20529;-63
2023/05/21 09:05:02;;;;;;;3.83;1.42;;;21.40;99.90;;;;;;5094873;28;20078;-62
2023/05/21 09:07:30;;;;;;;3.57;1.37;;;21.40;99.90;;;;;;5095347;28;20591;-62
2023/05/21 09:10:01;;;;;;;2.83;1.33;;;21.50;99.90;;;;;;5113007;28;20677;-62
2023/05/21 09:12:27;;;;;;;4.38;1.60;;;21.60;99.90;;;;;;5094789;28;20046;-62
2023/05/21 09:14:53;;;;;;;2.63;1.75;;;21.80;99.90;;;;;;5094864;28;20126;-62
2023/05/21 09:17:19;;;;;;;2.22;1.05;;;21.90;99.90;;;;;;5094176;28;20047;-62
2023/05/21 09:20:09;;;;;;;1.88;0.90;;;21.90;99.90;;;;;;5112825;28;20100;-63
2023/05/21 09:22:43;;;;;;;3.47;1.85;;;21.90;99.90;;;;;;5083089;28;20035;-63
2023/05/21 09:25:11;;;;;;;2.33;1.40;;;21.70;99.90;;;;;;5112245;28;20035;-63
2023/05/21 09:27:37;;;;;;;2.15;1.30;;;21.70;99.90;;;;;;5077773;28;20065;-62
2023/05/21 09:30:04;;;;;;;2.20;1.27;;;21.60;99.90;;;;;;5094378;28;20542;-62
2023/05/21 09:32:30;;;;;;;2.83;1.35;;;21.70;99.90;;;;;;5112176;28;20112;-62
2023/05/21 09:34:55;;;;;;;1.85;1.17;;;21.90;99.90;;;;;;5112863;28;20491;-63
2023/05/21 09:37:21;;;;;;;5.63;1.85;;;22.00;99.90;;;;;;5101478;28;20500;-62
2023/05/21 09:39:47;;;;;;;2.92;1.40;;;22.10;99.90;;;;;;5112062;28;20043;-62
2023/05/21 09:42:13;;;;;;;3.78;1.48;;;22.40;99.90;;;;;;5094372;28;20035;-63
2023/05/21 09:44:42;;;;;;;1.80;1.15;;;22.70;99.90;;;;;;5104488;28;20036;-63
2023/05/21 09:47:11;;;;;;;2.30;1.15;;;23.00;99.90;;;;;;5110102;28;20044;-64
2023/05/21 09:49:41;;;;;;;2.33;1.03;;;23.10;99.90;;;;;;5112018;28;20406;-64
2023/05/21 09:52:21;;;;;;;3.17;1.48;;;23.00;99.90;;;;;;5094759;28;20070;-63
2023/05/21 09:54:48;;;;;;;3.78;1.40;;;23.10;99.90;;;;;;5111980;28;20708;-65
2023/05/21 09:57:25;;;;;;;3.33;1.30;;;23.00;99.90;;;;;;5094616;28;20131;-63
2023/05/21 09:59:52;;;;;;;2.92;1.40;;;23.10;99.90;;;;;;5076896;28;20422;-62
2023/05/21 10:02:27;;;;;;;1.73;0.98;;;23.30;99.90;;;;;;5093933;28;20071;-62
2023/05/21 10:05:15;;;;;;;1.63;0.88;;;23.40;99.90;;;;;;5110664;28;20039;-63
2023/05/21 10:07:53;;;;;;;2.88;1.05;;;23.50;99.90;;;;;;5111546;28;20054;-63
2023/05/21 10:10:21;;;;;;;2.17;0.95;;;23.60;99.90;;;;;;5093787;28;20040;-62
2023/05/21 10:12:53;;;;;;;3.58;1.73;;;23.80;99.90;;;;;;5110691;28;20557;-64
2023/05/21 10:15:24;;;;;;;3.15;1.25;;;24.00;99.90;;;;;;5093832;28;20040;-62
2023/05/21 10:17:52;;;;;;;2.03;1.33;;;24.20;99.90;;;;;;5093911;28;20062;-63
2023/05/21 10:20:18;;;;;;;4.75;1.75;;;24.30;99.90;;;;;;5092816;28;20039;-63
2023/05/21 10:22:45;;;;;;;2.67;1.23;;;24.40;99.90;;;;;;5093374;28;20126;-63
2023/05/21 10:25:12;;;;;;;2.42;1.60;;;24.50;99.90;;;;;;5111782;28;20399;-63
2023/05/21 10:27:40;;;;;;;2.83;1.40;;;24.50;99.90;;;;;;5092787;28;20039;-63
2023/05/21 10:30:07;;;;;;;3.17;1.20;;;24.30;99.90;;;;;;5111165;28;20047;-62
2023/05/21 10:32:33;;;;;;;1.75;1.05;;;24.30;99.90;;;;;;5093003;28;20043;-63
2023/05/21 10:35:01;;;;;;;2.65;1.10;;;24.30;99.90;;;;;;5073239;28;20040;-61
2023/05/21 10:37:27;;;;;;;3.70;1.10;;;24.30;99.90;;;;;;5111092;28;20123;-61
2023/05/21 10:39:54;;;;;;;2.58;0.93;;;24.20;99.90;;;;;;5110496;28;20107;-62
2023/05/21 10:42:25;;;;;;;3.78;0.98;;;24.00;99.90;;;;;;5110392;28;20051;-62
2023/05/21 10:45:09;;;;;;;2.50;1.25;;;23.90;99.90;;;;;;5109187;28;20031;-62
2023/05/21 10:47:56;;;;;;;1.88;0.80;;;23.90;99.90;;;;;;5075369;28;20092;-62
2023/05/21 10:50:50;;;;;;;6.82;1.33;;;23.70;99.90;;;;;;5110873;28;20048;-63
2023/05/21 10:53:54;;;;;;;2.17;1.25;;;23.40;99.90;;;;;;5110602;28;20044;-62
2023/05/21 10:57:05;;;;;;;3.80;1.05;;;23.10;99.90;;;;;;5110448;28;20161;-62
2023/05/21 10:59:41;;;;;;;3.30;0.98;;;23.30;99.90;;;;;;5105410;28;20105;-63
2023/05/21 11:02:10;;;;;;;3.22;1.42;;;23.50;99.90;;;;;;5091859;28;20044;-63
2023/05/21 11:04:38;;;;;;;2.70;1.73;;;23.70;99.90;;;;;;5092422;28;20043;-64
2023/05/21 11:07:05;;;;;;;1.67;0.70;;;23.80;99.90;;;;;;5092674;28;20364;-63
2023/05/21 11:09:30;;;;;;;2.28;0.90;;;23.70;99.90;;;;;;5091976;28;20440;-63
2023/05/21 11:11:58;;;;;;;2.00;0.93;;;23.70;99.90;;;;;;5110313;28;20036;-63
2023/05/21 11:14:36;;;;;;;2.28;1.10;;;23.70;99.90;;;;;;5092537;28;20062;-63
2023/05/21 11:17:15;;;;;;;2.92;1.20;;;23.80;99.90;;;;;;5091721;28;20044;-62
2023/05/21 11:19:42;;;;;;;3.83;1.27;;;24.00;99.90;;;;;;5110639;28;20043;-64
2023/05/21 11:22:27;;;;;;;2.53;1.05;;;24.20;99.90;;;;;;5110181;28;20084;-63
2023/05/21 11:24:55;;;;;;;2.45;1.10;;;24.40;99.90;;;;;;5109592;28;20031;-62
2023/05/21 11:27:30;;;;;;;2.95;0.95;;;24.60;99.90;;;;;;5092247;28;20047;-62
2023/05/21 11:29:56;;;;;;;2.72;0.88;;;24.70;99.90;;;;;;5109569;28;20094;-62
2023/05/21 11:32:23;;;;;;;2.05;0.90;;;24.70;99.90;;;;;;5092039;28;20163;-63
2023/05/21 11:34:49;;;;;;;2.60;0.88;;;24.80;99.90;;;;;;5092011;28;20522;-63
2023/05/21 11:37:23;;;;;;;2.40;1.17;;;24.90;99.90;;;;;;5091732;28;20035;-62
2023/05/21 11:39:50;;;;;;;1.38;0.70;;;25.00;99.90;;;;;;5110212;28;20040;-64
2023/05/21 11:42:41;;;;;;;2.60;1.08;;;25.00;99.90;;;;;;5110396;28;20035;-62
2023/05/21 11:45:07;;;;;;;1.95;0.85;;;25.00;99.90;;;;;;5063296;28;20058;-63
2023/05/21 11:47:33;;;;;;;4.80;0.93;;;24.90;99.90;;;;;;5110227;28;20046;-62
2023/05/21 11:50:01;;;;;;;2.28;0.90;;;24.90;99.90;;;;;;5109911;28;20055;-64
2023/05/21 11:52:31;;;;;;;2.08;1.00;;;24.80;99.90;;;;;;5091454;28;20051;-63
2023/05/21 11:55:00;;;;;;;1.67;0.98;;;24.70;99.90;;;;;;5075208;28;20087;-63
2023/05/21 11:57:30;;;;;;;2.05;0.98;;;24.40;99.90;;;;;;5074765;28;20488;-62
2023/05/21 11:59:58;;;;;;;1.92;0.88;;;24.00;99.90;;;;;;5109251;28;20093;-62
2023/05/21 12:02:26;;;;;;;2.22;0.80;;;23.80;99.90;;;;;;5109801;28;20114;-62
2023/05/21 12:04:53;;;;;;;1.45;1.10;;;23.60;99.90;;;;;;5091380;28;20147;-62
2023/05/21 12:07:19;;;;;;;2.03;1.00;;;23.60;99.90;;;;;;5091689;28;20065;-62
2023/05/21 12:09:49;;;;;;;2.15;1.20;;;23.70;99.90;;;;;;5091426;28;20054;-65
2023/05/21 12:12:23;;;;;;;2.85;1.20;;;23.70;99.90;;;;;;5091524;28;20458;-65
2023/05/21 12:14:51;;;;;;;2.05;0.93;;;23.70;99.90;;;;;;5091648;28;20050;-62
2023/05/21 12:17:22;;;;;;;1.75;1.15;;;23.80;99.90;;;;;;5110121;28;20404;-62
2023/05/21 12:19:50;;;;;;;2.15;1.05;;;23.90;99.90;;;;;;5109455;28;20054;-62
2023/05/21 12:22:16;;;;;;;1.15;0.57;;;24.00;99.90;;;;;;5091832;28;20384;-63
2023/05/21 12:24:43;;;;;;;3.85;1.48;;;24.10;99.90;;;;;;5110034;28;20036;-63
2023/05/21 12:27:11;;;;;;;2.78;1.13;;;24.20;99.90;;;;;;5109286;28;20111;-63
2023/05/21 12:29:40;;;;;;;2.53;1.33;;;24.20;99.90;;;;;;5109997;28;20043;-63
2023/05/21 12:32:08;;;;;;;2.30;1.23;;;24.10;99.90;;;;;;5091670;28;20071;-63
2023/05/21 12:34:44;;;;;;;2.83;1.00;;;24.10;99.90;;;;;;5094140;28;20530;-63
2023/05/21 12:37:20;;;;;;;1.95;1.40;;;24.00;99.90;;;;;;5095503;28;20101;-63
2023/05/21 12:39:51;;;;;;;3.85;1.30;;;23.90;99.90;;;;;;5094761;28;20127;-63
2023/05/21 12:42:33;;;;;;;2.58;1.30;;;23.80;99.90;;;;;;5095433;28;20043;-62
2023/05/21 12:45:00;;;;;;;3.28;1.10;;;23.80;99.90;;;;;;5095730;28;20097;-63
2023/05/21 12:47:27;;;;;;;2.25;0.93;;;23.80;99.90;;;;;;5094932;28;20369;-65
2023/05/21 12:49:56;;;;;;;4.00;1.20;;;23.80;99.90;;;;;;5095106;28;20055;-63
2023/05/21 12:52:23;;;;;;;3.70;1.23;;;23.80;99.90;;;;;;5095382;28;20130;-63